sensor_id;sensor_type;location;lat;lon;timestamp;temperature;humidity
41290;DHT22;36117;46.680;11.154;2022-07-29T00:00:07;21.70;85.80
41290;DHT22;36117;46.680;11.154;2022-07-29T00:02:33;21.70;85.40
41290;DHT22;36117;46.680;11.154;2022-07-29T00:05:00;21.60;85.90
41290;DHT22;36117;46.680;11.154;2022-07-29T00:07:26;21.80;85.90
41290;DHT22;36117;46.680;11.154;2022-07-29T00:09:52;21.90;85.00
41290;DHT22;36117;46.680;11.154;2022-07-29T00:12:20;22.10;85.30
41290;DHT22;36117;46.680;11.154;2022-07-29T00:14:45;22.20;84.60
41290;DHT22;36117;46.680;11.154;2022-07-29T00:17:11;22.00;85.30
41290;DHT22;36117;46.680;11.154;2022-07-29T00:19:37;21.80;86.00
41290;DHT22;36117;46.680;11.154;2022-07-29T00:22:03;21.60;88.00
41290;DHT22;36117;46.680;11.154;2022-07-29T00:24:29;21.70;86.60
41290;DHT22;36117;46.680;11.154;2022-07-29T00:26:54;21.70;87.80
41290;DHT22;36117;46.680;11.154;2022-07-29T00:29:20;21.70;87.50
41290;DHT22;36117;46.680;11.154;2022-07-29T00:31:46;21.90;87.00
41290;DHT22;36117;46.680;11.154;2022-07-29T00:34:12;21.90;88.00
41290;DHT22;36117;46.680;11.154;2022-07-29T00:36:57;22.10;87.90
41290;DHT22;36117;46.680;11.154;2022-07-29T00:39:23;22.10;88.00
41290;DHT22;36117;46.680;11.154;2022-07-29T00:41:49;22.20;88.40
41290;DHT22;36117;46.680;11.154;2022-07-29T00:44:15;22.30;88.70
41290;DHT22;36117;46.680;11.154;2022-07-29T00:46:41;22.40;88.30
41290;DHT22;36117;46.680;11.154;2022-07-29T00:49:07;22.50;86.80
41290;DHT22;36117;46.680;11.154;2022-07-29T00:51:37;22.40;87.00
41290;DHT22;36117;46.680;11.154;2022-07-29T00:54:04;22.30;87.20
41290;DHT22;36117;46.680;11.154;2022-07-29T00:56:32;22.30;87.70
41290;DHT22;36117;46.680;11.154;2022-07-29T00:58:58;22.50;87.00
41290;DHT22;36117;46.680;11.154;2022-07-29T01:01:25;22.60;86.30
41290;DHT22;36117;46.680;11.154;2022-07-29T01:03:51;22.80;86.00
41290;DHT22;36117;46.680;11.154;2022-07-29T01:06:18;23.10;84.60
41290;DHT22;36117;46.680;11.154;2022-07-29T01:08:45;23.30;83.90
41290;DHT22;36117;46.680;11.154;2022-07-29T01:11:13;23.30;83.40
41290;DHT22;36117;46.680;11.154;2022-07-29T01:13:39;23.30;83.60
41290;DHT22;36117;46.680;11.154;2022-07-29T01:16:21;23.30;83.20
41290;DHT22;36117;46.680;11.154;2022-07-29T01:18:53;23.00;85.00
41290;DHT22;36117;46.680;11.154;2022-07-29T01:21:53;23.00;85.00
41290;DHT22;36117;46.680;11.154;2022-07-29T01:24:48;22.90;85.00
41290;DHT22;36117;46.680;11.154;2022-07-29T01:28:38;22.40;88.20
41290;DHT22;36117;46.680;11.154;2022-07-29T01:30:29;22.30;88.90
41290;DHT22;36117;46.680;11.154;2022-07-29T01:33:01;22.40;88.60
41290;DHT22;36117;46.680;11.154;2022-07-29T01:35:40;22.60;86.60
41290;DHT22;36117;46.680;11.154;2022-07-29T01:38:21;22.60;85.30
41290;DHT22;36117;46.680;11.154;2022-07-29T01:40:54;22.10;89.00
41290;DHT22;36117;46.680;11.154;2022-07-29T01:43:29;22.10;89.70
41290;DHT22;36117;46.680;11.154;2022-07-29T01:46:01;22.40;89.80
41290;DHT22;36117;46.680;11.154;2022-07-29T01:48:30;22.50;88.80
41290;DHT22;36117;46.680;11.154;2022-07-29T01:52:00;22.70;88.70
41290;DHT22;36117;46.680;11.154;2022-07-29T01:54:38;22.70;88.40
41290;DHT22;36117;46.680;11.154;2022-07-29T01:57:10;22.80;87.60
41290;DHT22;36117;46.680;11.154;2022-07-29T01:59:37;23.00;87.50
41290;DHT22;36117;46.680;11.154;2022-07-29T02:02:04;22.80;87.80
41290;DHT22;36117;46.680;11.154;2022-07-29T02:04:36;22.80;87.20
41290;DHT22;36117;46.680;11.154;2022-07-29T02:07:05;23.00;86.40
41290;DHT22;36117;46.680;11.154;2022-07-29T02:09:34;23.10;86.70
41290;DHT22;36117;46.680;11.154;2022-07-29T02:12:02;23.10;86.00
41290;DHT22;36117;46.680;11.154;2022-07-29T02:14:33;23.10;85.50
41290;DHT22;36117;46.680;11.154;2022-07-29T02:17:00;23.30;85.50
41290;DHT22;36117;46.680;11.154;2022-07-29T02:19:28;23.20;86.20
41290;DHT22;36117;46.680;11.154;2022-07-29T02:21:56;23.40;86.00
41290;DHT22;36117;46.680;11.154;2022-07-29T02:24:24;23.40;85.00
41290;DHT22;36117;46.680;11.154;2022-07-29T02:26:53;23.40;85.20
41290;DHT22;36117;46.680;11.154;2022-07-29T02:29:26;23.30;85.50
41290;DHT22;36117;46.680;11.154;2022-07-29T02:31:51;23.20;85.30
41290;DHT22;36117;46.680;11.154;2022-07-29T02:34:19;23.10;85.40
41290;DHT22;36117;46.680;11.154;2022-07-29T02:36:47;23.00;86.50
41290;DHT22;36117;46.680;11.154;2022-07-29T02:39:15;22.80;86.70
41290;DHT22;36117;46.680;11.154;2022-07-29T02:41:45;22.70;87.10
41290;DHT22;36117;46.680;11.154;2022-07-29T02:44:14;22.60;87.40
41290;DHT22;36117;46.680;11.154;2022-07-29T02:46:52;22.80;86.80
41290;DHT22;36117;46.680;11.154;2022-07-29T02:52:41;23.10;85.80
41290;DHT22;36117;46.680;11.154;2022-07-29T02:55:39;23.00;85.00
41290;DHT22;36117;46.680;11.154;2022-07-29T03:00:56;22.60;86.50
41290;DHT22;36117;46.680;11.154;2022-07-29T03:03:26;22.40;88.00
41290;DHT22;36117;46.680;11.154;2022-07-29T03:05:57;22.20;89.00
41290;DHT22;36117;46.680;11.154;2022-07-29T03:08:23;22.30;88.70
41290;DHT22;36117;46.680;11.154;2022-07-29T03:10:51;22.40;88.10
41290;DHT22;36117;46.680;11.154;2022-07-29T03:13:19;22.50;88.50
41290;DHT22;36117;46.680;11.154;2022-07-29T03:15:45;22.60;87.90
41290;DHT22;36117;46.680;11.154;2022-07-29T03:18:13;22.70;86.80
41290;DHT22;36117;46.680;11.154;2022-07-29T03:20:40;22.80;86.10
41290;DHT22;36117;46.680;11.154;2022-07-29T03:23:07;22.90;85.60
41290;DHT22;36117;46.680;11.154;2022-07-29T03:25:33;22.90;85.50
41290;DHT22;36117;46.680;11.154;2022-07-29T03:28:00;23.00;85.50
41290;DHT22;36117;46.680;11.154;2022-07-29T03:30:26;23.00;85.10
41290;DHT22;36117;46.680;11.154;2022-07-29T03:32:53;23.10;85.00
41290;DHT22;36117;46.680;11.154;2022-07-29T03:35:20;23.10;85.10
41290;DHT22;36117;46.680;11.154;2022-07-29T03:37:46;22.90;85.00
41290;DHT22;36117;46.680;11.154;2022-07-29T03:40:18;22.90;85.60
41290;DHT22;36117;46.680;11.154;2022-07-29T03:42:45;22.80;85.30
41290;DHT22;36117;46.680;11.154;2022-07-29T03:45:16;22.80;84.20
41290;DHT22;36117;46.680;11.154;2022-07-29T03:47:47;22.50;84.80
41290;DHT22;36117;46.680;11.154;2022-07-29T03:50:15;22.50;85.60
41290;DHT22;36117;46.680;11.154;2022-07-29T03:52:41;22.70;84.60
41290;DHT22;36117;46.680;11.154;2022-07-29T03:55:09;22.80;84.00
41290;DHT22;36117;46.680;11.154;2022-07-29T03:57:35;22.90;83.70
41290;DHT22;36117;46.680;11.154;2022-07-29T04:00:03;23.10;83.10
41290;DHT22;36117;46.680;11.154;2022-07-29T04:02:31;23.10;83.10
41290;DHT22;36117;46.680;11.154;2022-07-29T04:04:57;23.10;83.00
41290;DHT22;36117;46.680;11.154;2022-07-29T04:07:23;23.10;82.90
41290;DHT22;36117;46.680;11.154;2022-07-29T04:09:49;23.00;83.00
41290;DHT22;36117;46.680;11.154;2022-07-29T04:12:14;22.90;83.60
41290;DHT22;36117;46.680;11.154;2022-07-29T04:14:40;23.10;82.90
41290;DHT22;36117;46.680;11.154;2022-07-29T04:17:06;23.30;82.40
41290;DHT22;36117;46.680;11.154;2022-07-29T04:19:32;23.20;81.80
41290;DHT22;36117;46.680;11.154;2022-07-29T04:21:59;23.10;81.90
41290;DHT22;36117;46.680;11.154;2022-07-29T04:24:26;23.00;82.20
41290;DHT22;36117;46.680;11.154;2022-07-29T04:26:52;23.20;82.40
41290;DHT22;36117;46.680;11.154;2022-07-29T04:29:17;22.90;81.90
41290;DHT22;36117;46.680;11.154;2022-07-29T04:31:43;22.50;84.00
41290;DHT22;36117;46.680;11.154;2022-07-29T04:34:10;22.40;85.00
41290;DHT22;36117;46.680;11.154;2022-07-29T04:36:36;22.40;85.10
41290;DHT22;36117;46.680;11.154;2022-07-29T04:39:03;22.60;84.60
41290;DHT22;36117;46.680;11.154;2022-07-29T04:41:29;22.80;84.00
41290;DHT22;36117;46.680;11.154;2022-07-29T04:43:55;23.00;83.80
41290;DHT22;36117;46.680;11.154;2022-07-29T04:46:21;23.20;82.80
41290;DHT22;36117;46.680;11.154;2022-07-29T04:48:47;23.30;82.20
41290;DHT22;36117;46.680;11.154;2022-07-29T04:51:13;23.60;81.60
41290;DHT22;36117;46.680;11.154;2022-07-29T04:53:39;23.80;80.70
41290;DHT22;36117;46.680;11.154;2022-07-29T04:56:05;23.60;80.90
41290;DHT22;36117;46.680;11.154;2022-07-29T04:58:32;23.60;80.00
41290;DHT22;36117;46.680;11.154;2022-07-29T05:00:59;23.60;79.20
41290;DHT22;36117;46.680;11.154;2022-07-29T05:03:25;23.60;78.80
41290;DHT22;36117;46.680;11.154;2022-07-29T05:05:51;23.70;78.50
41290;DHT22;36117;46.680;11.154;2022-07-29T05:08:16;23.80;78.40
41290;DHT22;36117;46.680;11.154;2022-07-29T05:10:42;23.80;77.70
41290;DHT22;36117;46.680;11.154;2022-07-29T05:13:08;24.00;77.40
41290;DHT22;36117;46.680;11.154;2022-07-29T05:15:35;24.00;76.50
41290;DHT22;36117;46.680;11.154;2022-07-29T05:18:01;23.90;77.00
41290;DHT22;36117;46.680;11.154;2022-07-29T05:20:27;23.60;78.30
41290;DHT22;36117;46.680;11.154;2022-07-29T05:22:58;23.50;78.80
41290;DHT22;36117;46.680;11.154;2022-07-29T05:25:25;23.40;79.30
41290;DHT22;36117;46.680;11.154;2022-07-29T05:27:51;23.20;79.90
41290;DHT22;36117;46.680;11.154;2022-07-29T05:30:18;23.10;80.70
41290;DHT22;36117;46.680;11.154;2022-07-29T05:32:44;23.40;80.00
41290;DHT22;36117;46.680;11.154;2022-07-29T05:35:10;23.80;78.80
41290;DHT22;36117;46.680;11.154;2022-07-29T05:37:36;23.90;77.90
41290;DHT22;36117;46.680;11.154;2022-07-29T05:40:02;24.10;77.30
41290;DHT22;36117;46.680;11.154;2022-07-29T05:42:28;24.30;76.10
41290;DHT22;36117;46.680;11.154;2022-07-29T05:44:54;24.50;77.20
41290;DHT22;36117;46.680;11.154;2022-07-29T05:47:20;24.80;75.60
41290;DHT22;36117;46.680;11.154;2022-07-29T05:49:46;25.10;74.00
41290;DHT22;36117;46.680;11.154;2022-07-29T05:52:12;25.30;72.80
41290;DHT22;36117;46.680;11.154;2022-07-29T05:54:39;25.50;72.30
41290;DHT22;36117;46.680;11.154;2022-07-29T05:57:05;25.40;71.70
41290;DHT22;36117;46.680;11.154;2022-07-29T05:59:35;25.40;71.70
41290;DHT22;36117;46.680;11.154;2022-07-29T06:02:01;25.60;71.10
41290;DHT22;36117;46.680;11.154;2022-07-29T06:04:26;25.60;70.60
41290;DHT22;36117;46.680;11.154;2022-07-29T06:06:52;25.60;70.80
41290;DHT22;36117;46.680;11.154;2022-07-29T06:09:18;25.90;69.40
41290;DHT22;36117;46.680;11.154;2022-07-29T06:11:45;26.00;69.60
41290;DHT22;36117;46.680;11.154;2022-07-29T06:14:11;26.10;69.70
41290;DHT22;36117;46.680;11.154;2022-07-29T06:16:37;26.20;68.80
41290;DHT22;36117;46.680;11.154;2022-07-29T06:19:02;26.40;68.20
41290;DHT22;36117;46.680;11.154;2022-07-29T06:21:29;26.60;67.70
41290;DHT22;36117;46.680;11.154;2022-07-29T06:23:55;26.60;67.60
41290;DHT22;36117;46.680;11.154;2022-07-29T06:26:21;26.80;67.10
41290;DHT22;36117;46.680;11.154;2022-07-29T06:28:47;27.10;66.00
41290;DHT22;36117;46.680;11.154;2022-07-29T06:31:13;27.00;66.20
41290;DHT22;36117;46.680;11.154;2022-07-29T06:33:39;27.00;65.70
41290;DHT22;36117;46.680;11.154;2022-07-29T06:36:05;26.80;67.10
41290;DHT22;36117;46.680;11.154;2022-07-29T06:38:33;26.90;66.30
41290;DHT22;36117;46.680;11.154;2022-07-29T06:41:01;27.30;65.40
41290;DHT22;36117;46.680;11.154;2022-07-29T06:43:37;27.60;64.50
41290;DHT22;36117;46.680;11.154;2022-07-29T06:46:12;27.70;63.40
41290;DHT22;36117;46.680;11.154;2022-07-29T06:48:40;27.70;63.60
41290;DHT22;36117;46.680;11.154;2022-07-29T06:51:08;27.60;63.40
41290;DHT22;36117;46.680;11.154;2022-07-29T06:53:35;27.80;62.20
41290;DHT22;36117;46.680;11.154;2022-07-29T06:56:03;28.20;59.60
41290;DHT22;36117;46.680;11.154;2022-07-29T06:58:29;28.90;57.70
41290;DHT22;36117;46.680;11.154;2022-07-29T07:01:01;29.50;55.20
41290;DHT22;36117;46.680;11.154;2022-07-29T07:03:28;30.30;53.70
41290;DHT22;36117;46.680;11.154;2022-07-29T07:05:54;31.00;51.60
41290;DHT22;36117;46.680;11.154;2022-07-29T07:08:22;31.60;50.80
41290;DHT22;36117;46.680;11.154;2022-07-29T07:10:49;31.70;49.20
41290;DHT22;36117;46.680;11.154;2022-07-29T07:13:15;31.60;49.90
41290;DHT22;36117;46.680;11.154;2022-07-29T07:15:45;32.00;48.20
41290;DHT22;36117;46.680;11.154;2022-07-29T07:18:13;32.60;47.80
41290;DHT22;36117;46.680;11.154;2022-07-29T07:20:39;33.30;45.50
41290;DHT22;36117;46.680;11.154;2022-07-29T07:23:05;33.50;45.30
41290;DHT22;36117;46.680;11.154;2022-07-29T07:25:32;33.40;45.10
41290;DHT22;36117;46.680;11.154;2022-07-29T07:27:59;32.30;46.30
41290;DHT22;36117;46.680;11.154;2022-07-29T07:30:25;33.10;46.40
41290;DHT22;36117;46.680;11.154;2022-07-29T07:32:52;34.70;43.30
41290;DHT22;36117;46.680;11.154;2022-07-29T07:35:18;35.50;41.90
41290;DHT22;36117;46.680;11.154;2022-07-29T07:37:46;35.80;40.80
41290;DHT22;36117;46.680;11.154;2022-07-29T07:40:12;36.40;40.30
41290;DHT22;36117;46.680;11.154;2022-07-29T07:42:39;37.60;38.60
41290;DHT22;36117;46.680;11.154;2022-07-29T07:45:06;38.50;36.90
41290;DHT22;36117;46.680;11.154;2022-07-29T07:47:35;37.00;37.20
41290;DHT22;36117;46.680;11.154;2022-07-29T07:50:02;35.20;40.10
41290;DHT22;36117;46.680;11.154;2022-07-29T07:52:27;34.40;41.70
41290;DHT22;36117;46.680;11.154;2022-07-29T07:54:53;34.10;42.80
41290;DHT22;36117;46.680;11.154;2022-07-29T07:57:19;33.40;43.30
41290;DHT22;36117;46.680;11.154;2022-07-29T07:59:45;34.00;43.60
41290;DHT22;36117;46.680;11.154;2022-07-29T08:02:12;35.00;42.60
41290;DHT22;36117;46.680;11.154;2022-07-29T08:04:38;35.80;40.10
41290;DHT22;36117;46.680;11.154;2022-07-29T08:07:06;36.20;38.90
41290;DHT22;36117;46.680;11.154;2022-07-29T08:09:33;36.30;39.50
41290;DHT22;36117;46.680;11.154;2022-07-29T08:12:00;36.40;39.30
41290;DHT22;36117;46.680;11.154;2022-07-29T08:14:34;36.80;38.60
41290;DHT22;36117;46.680;11.154;2022-07-29T08:17:06;36.40;37.80
41290;DHT22;36117;46.680;11.154;2022-07-29T08:19:35;35.40;39.60
41290;DHT22;36117;46.680;11.154;2022-07-29T08:22:02;33.70;42.80
41290;DHT22;36117;46.680;11.154;2022-07-29T08:24:28;33.20;43.90
41290;DHT22;36117;46.680;11.154;2022-07-29T08:27:12;34.30;41.70
41290;DHT22;36117;46.680;11.154;2022-07-29T08:29:38;35.50;38.80
41290;DHT22;36117;46.680;11.154;2022-07-29T08:32:05;35.80;39.60
41290;DHT22;36117;46.680;11.154;2022-07-29T08:34:31;36.20;37.90
41290;DHT22;36117;46.680;11.154;2022-07-29T08:36:57;36.00;38.80
41290;DHT22;36117;46.680;11.154;2022-07-29T08:39:24;34.90;38.00
41290;DHT22;36117;46.680;11.154;2022-07-29T08:41:50;35.30;39.50
41290;DHT22;36117;46.680;11.154;2022-07-29T08:44:18;35.00;39.30
41290;DHT22;36117;46.680;11.154;2022-07-29T08:46:44;35.70;40.20
41290;DHT22;36117;46.680;11.154;2022-07-29T08:49:10;37.40;37.20
41290;DHT22;36117;46.680;11.154;2022-07-29T08:51:39;38.30;35.90
41290;DHT22;36117;46.680;11.154;2022-07-29T08:54:05;36.70;36.00
41290;DHT22;36117;46.680;11.154;2022-07-29T08:56:32;36.50;38.50
41290;DHT22;36117;46.680;11.154;2022-07-29T08:58:58;36.00;39.20
41290;DHT22;36117;46.680;11.154;2022-07-29T09:01:29;35.70;39.70
41290;DHT22;36117;46.680;11.154;2022-07-29T09:03:56;34.80;40.60
41290;DHT22;36117;46.680;11.154;2022-07-29T09:06:24;35.30;40.00
41290;DHT22;36117;46.680;11.154;2022-07-29T09:08:55;36.10;39.40
41290;DHT22;36117;46.680;11.154;2022-07-29T09:11:24;37.00;36.90
41290;DHT22;36117;46.680;11.154;2022-07-29T09:13:50;35.90;37.10
41290;DHT22;36117;46.680;11.154;2022-07-29T09:16:15;35.50;39.00
41290;DHT22;36117;46.680;11.154;2022-07-29T09:18:43;36.60;38.50
41290;DHT22;36117;46.680;11.154;2022-07-29T09:21:12;37.80;37.20
41290;DHT22;36117;46.680;11.154;2022-07-29T09:24:09;38.60;35.90
41290;DHT22;36117;46.680;11.154;2022-07-29T09:26:39;39.50;35.50
41290;DHT22;36117;46.680;11.154;2022-07-29T09:29:13;40.90;33.50
41290;DHT22;36117;46.680;11.154;2022-07-29T09:31:42;40.90;32.20
41290;DHT22;36117;46.680;11.154;2022-07-29T09:34:10;39.60;33.20
41290;DHT22;36117;46.680;11.154;2022-07-29T09:36:45;37.70;36.00
41290;DHT22;36117;46.680;11.154;2022-07-29T09:39:12;37.60;36.60
41290;DHT22;36117;46.680;11.154;2022-07-29T09:41:49;38.80;34.90
41290;DHT22;36117;46.680;11.154;2022-07-29T09:44:18;40.40;33.50
41290;DHT22;36117;46.680;11.154;2022-07-29T09:47:04;40.90;32.50
41290;DHT22;36117;46.680;11.154;2022-07-29T09:49:34;41.30;31.90
41290;DHT22;36117;46.680;11.154;2022-07-29T09:52:04;39.30;32.40
41290;DHT22;36117;46.680;11.154;2022-07-29T09:54:31;39.50;34.20
41290;DHT22;36117;46.680;11.154;2022-07-29T09:57:06;40.10;33.50
41290;DHT22;36117;46.680;11.154;2022-07-29T09:59:33;40.30;32.30
41290;DHT22;36117;46.680;11.154;2022-07-29T10:01:59;38.30;35.00
41290;DHT22;36117;46.680;11.154;2022-07-29T10:04:39;39.50;34.60
41290;DHT22;36117;46.680;11.154;2022-07-29T10:07:06;41.60;32.00
41290;DHT22;36117;46.680;11.154;2022-07-29T10:09:33;40.60;30.60
41290;DHT22;36117;46.680;11.154;2022-07-29T10:14:33;39.30;34.00
41290;DHT22;36117;46.680;11.154;2022-07-29T10:17:01;40.40;33.00
41290;DHT22;36117;46.680;11.154;2022-07-29T10:19:31;41.10;31.80
41290;DHT22;36117;46.680;11.154;2022-07-29T10:21:59;42.40;30.70
41290;DHT22;36117;46.680;11.154;2022-07-29T10:24:30;42.40;30.10
41290;DHT22;36117;46.680;11.154;2022-07-29T10:26:57;41.80;29.80
41290;DHT22;36117;46.680;11.154;2022-07-29T10:29:24;42.20;30.70
41290;DHT22;36117;46.680;11.154;2022-07-29T10:43:27;41.10;30.10
41290;DHT22;36117;46.680;11.154;2022-07-29T10:45:59;40.80;30.20
41290;DHT22;36117;46.680;11.154;2022-07-29T10:48:25;40.80;30.60
41290;DHT22;36117;46.680;11.154;2022-07-29T10:50:53;42.30;28.60
41290;DHT22;36117;46.680;11.154;2022-07-29T10:53:24;43.00;28.30
41290;DHT22;36117;46.680;11.154;2022-07-29T11:01:44;43.00;29.20
41290;DHT22;36117;46.680;11.154;2022-07-29T11:04:10;42.50;28.90
41290;DHT22;36117;46.680;11.154;2022-07-29T11:09:27;41.90;29.30
41290;DHT22;36117;46.680;11.154;2022-07-29T11:11:56;40.60;30.40
41290;DHT22;36117;46.680;11.154;2022-07-29T11:14:57;41.50;30.30
41290;DHT22;36117;46.680;11.154;2022-07-29T11:17:24;41.30;30.80
41290;DHT22;36117;46.680;11.154;2022-07-29T11:19:51;39.50;32.10
41290;DHT22;36117;46.680;11.154;2022-07-29T11:22:35;37.70;34.40
41290;DHT22;36117;46.680;11.154;2022-07-29T11:25:16;35.30;37.60
41290;DHT22;36117;46.680;11.154;2022-07-29T11:27:42;33.90;39.70
41290;DHT22;36117;46.680;11.154;2022-07-29T11:30:09;33.20;40.50
41290;DHT22;36117;46.680;11.154;2022-07-29T11:32:39;32.30;40.70
41290;DHT22;36117;46.680;11.154;2022-07-29T11:37:39;31.80;41.50
41290;DHT22;36117;46.680;11.154;2022-07-29T11:45:05;32.00;39.50
41290;DHT22;36117;46.680;11.154;2022-07-29T11:47:37;32.30;38.70
41290;DHT22;36117;46.680;11.154;2022-07-29T11:50:06;32.80;38.40
41290;DHT22;36117;46.680;11.154;2022-07-29T11:52:34;33.10;38.50
41290;DHT22;36117;46.680;11.154;2022-07-29T11:55:04;33.40;39.10
41290;DHT22;36117;46.680;11.154;2022-07-29T11:57:31;33.70;38.60
41290;DHT22;36117;46.680;11.154;2022-07-29T12:00:00;32.70;39.00
41290;DHT22;36117;46.680;11.154;2022-07-29T12:02:38;32.30;40.80
41290;DHT22;36117;46.680;11.154;2022-07-29T12:05:05;32.00;41.20
41290;DHT22;36117;46.680;11.154;2022-07-29T12:07:33;32.20;41.60
41290;DHT22;36117;46.680;11.154;2022-07-29T12:10:00;32.20;41.80
41290;DHT22;36117;46.680;11.154;2022-07-29T12:12:26;32.30;41.50
41290;DHT22;36117;46.680;11.154;2022-07-29T12:14:53;32.30;41.80
41290;DHT22;36117;46.680;11.154;2022-07-29T12:17:27;32.70;41.80
41290;DHT22;36117;46.680;11.154;2022-07-29T12:19:54;32.90;41.50
41290;DHT22;36117;46.680;11.154;2022-07-29T12:22:28;33.10;40.90
41290;DHT22;36117;46.680;11.154;2022-07-29T12:24:55;33.30;40.80
41290;DHT22;36117;46.680;11.154;2022-07-29T12:27:21;33.60;40.00
41290;DHT22;36117;46.680;11.154;2022-07-29T12:29:57;33.60;40.00
41290;DHT22;36117;46.680;11.154;2022-07-29T12:32:32;33.40;40.30
41290;DHT22;36117;46.680;11.154;2022-07-29T12:35:02;33.60;40.40
41290;DHT22;36117;46.680;11.154;2022-07-29T12:37:29;33.60;40.30
41290;DHT22;36117;46.680;11.154;2022-07-29T12:39:55;33.10;39.90
41290;DHT22;36117;46.680;11.154;2022-07-29T12:42:21;33.00;39.90
41290;DHT22;36117;46.680;11.154;2022-07-29T12:44:49;33.20;40.00
41290;DHT22;36117;46.680;11.154;2022-07-29T12:47:16;33.90;39.90
41290;DHT22;36117;46.680;11.154;2022-07-29T12:49:44;34.70;38.60
41290;DHT22;36117;46.680;11.154;2022-07-29T12:52:43;34.70;38.20
41290;DHT22;36117;46.680;11.154;2022-07-29T12:55:10;34.90;37.70
41290;DHT22;36117;46.680;11.154;2022-07-29T12:57:50;34.90;36.80
41290;DHT22;36117;46.680;11.154;2022-07-29T13:00:23;34.60;37.60
41290;DHT22;36117;46.680;11.154;2022-07-29T13:02:58;34.30;38.20
41290;DHT22;36117;46.680;11.154;2022-07-29T13:05:44;34.00;38.60
41290;DHT22;36117;46.680;11.154;2022-07-29T13:08:15;33.00;40.30
41290;DHT22;36117;46.680;11.154;2022-07-29T13:10:41;32.20;42.00
41290;DHT22;36117;46.680;11.154;2022-07-29T13:13:13;31.70;43.10
41290;DHT22;36117;46.680;11.154;2022-07-29T13:15:41;31.40;43.80
41290;DHT22;36117;46.680;11.154;2022-07-29T13:18:30;31.50;44.90
41290;DHT22;36117;46.680;11.154;2022-07-29T13:20:57;31.20;45.20
41290;DHT22;36117;46.680;11.154;2022-07-29T13:23:36;31.20;45.50
41290;DHT22;36117;46.680;11.154;2022-07-29T13:26:08;31.10;45.40
41290;DHT22;36117;46.680;11.154;2022-07-29T13:28:35;31.00;44.70
41290;DHT22;36117;46.680;11.154;2022-07-29T13:31:01;31.00;44.90
41290;DHT22;36117;46.680;11.154;2022-07-29T13:33:28;31.20;44.90
41290;DHT22;36117;46.680;11.154;2022-07-29T13:35:55;30.90;45.00
41290;DHT22;36117;46.680;11.154;2022-07-29T13:38:22;30.70;46.90
41290;DHT22;36117;46.680;11.154;2022-07-29T13:40:48;30.70;48.70
41290;DHT22;36117;46.680;11.154;2022-07-29T13:43:14;30.90;48.10
41290;DHT22;36117;46.680;11.154;2022-07-29T13:45:40;30.90;49.50
41290;DHT22;36117;46.680;11.154;2022-07-29T13:48:06;31.00;47.70
41290;DHT22;36117;46.680;11.154;2022-07-29T13:50:32;31.20;50.00
41290;DHT22;36117;46.680;11.154;2022-07-29T13:52:58;31.40;49.20
41290;DHT22;36117;46.680;11.154;2022-07-29T13:55:25;31.30;48.90
41290;DHT22;36117;46.680;11.154;2022-07-29T13:57:51;31.40;52.10
41290;DHT22;36117;46.680;11.154;2022-07-29T14:00:17;31.70;52.80
41290;DHT22;36117;46.680;11.154;2022-07-29T14:02:44;31.60;52.10
41290;DHT22;36117;46.680;11.154;2022-07-29T14:05:10;31.70;53.40
41290;DHT22;36117;46.680;11.154;2022-07-29T14:07:37;31.90;51.70
41290;DHT22;36117;46.680;11.154;2022-07-29T14:10:04;32.00;51.80
41290;DHT22;36117;46.680;11.154;2022-07-29T14:12:30;32.10;49.50
41290;DHT22;36117;46.680;11.154;2022-07-29T14:14:56;32.00;48.50
41290;DHT22;36117;46.680;11.154;2022-07-29T14:17:22;32.10;48.60
41290;DHT22;36117;46.680;11.154;2022-07-29T14:19:48;32.10;46.40
41290;DHT22;36117;46.680;11.154;2022-07-29T14:22:14;31.90;46.40
41290;DHT22;36117;46.680;11.154;2022-07-29T14:24:40;31.80;48.10
41290;DHT22;36117;46.680;11.154;2022-07-29T14:27:07;31.80;49.80
41290;DHT22;36117;46.680;11.154;2022-07-29T14:29:33;31.60;50.30
41290;DHT22;36117;46.680;11.154;2022-07-29T14:31:59;31.90;50.10
41290;DHT22;36117;46.680;11.154;2022-07-29T14:34:25;32.20;49.60
41290;DHT22;36117;46.680;11.154;2022-07-29T14:36:50;32.60;48.30
41290;DHT22;36117;46.680;11.154;2022-07-29T14:39:16;33.00;47.40
41290;DHT22;36117;46.680;11.154;2022-07-29T14:41:43;33.40;47.00
41290;DHT22;36117;46.680;11.154;2022-07-29T14:44:09;33.50;45.60
41290;DHT22;36117;46.680;11.154;2022-07-29T14:46:35;33.50;45.80
41290;DHT22;36117;46.680;11.154;2022-07-29T14:49:00;33.90;45.50
41290;DHT22;36117;46.680;11.154;2022-07-29T14:51:26;34.30;45.50
41290;DHT22;36117;46.680;11.154;2022-07-29T14:53:52;34.20;44.10
41290;DHT22;36117;46.680;11.154;2022-07-29T14:56:18;34.30;43.80
41290;DHT22;36117;46.680;11.154;2022-07-29T14:58:44;34.50;43.50
41290;DHT22;36117;46.680;11.154;2022-07-29T15:01:10;34.30;43.20
41290;DHT22;36117;46.680;11.154;2022-07-29T15:03:36;34.10;42.50
41290;DHT22;36117;46.680;11.154;2022-07-29T15:06:01;33.50;43.30
41290;DHT22;36117;46.680;11.154;2022-07-29T15:08:27;33.20;44.20
41290;DHT22;36117;46.680;11.154;2022-07-29T15:10:55;33.00;44.60
41290;DHT22;36117;46.680;11.154;2022-07-29T15:13:23;33.20;44.20
41290;DHT22;36117;46.680;11.154;2022-07-29T15:15:48;33.20;44.20
41290;DHT22;36117;46.680;11.154;2022-07-29T15:18:15;33.20;43.30
41290;DHT22;36117;46.680;11.154;2022-07-29T15:20:41;33.20;43.80
41290;DHT22;36117;46.680;11.154;2022-07-29T15:23:07;33.70;44.10
41290;DHT22;36117;46.680;11.154;2022-07-29T15:25:35;33.90;43.20
41290;DHT22;36117;46.680;11.154;2022-07-29T15:28:02;34.40;42.00
41290;DHT22;36117;46.680;11.154;2022-07-29T15:30:33;34.60;41.20
41290;DHT22;36117;46.680;11.154;2022-07-29T15:33:01;34.70;41.20
41290;DHT22;36117;46.680;11.154;2022-07-29T15:35:27;34.70;41.50
41290;DHT22;36117;46.680;11.154;2022-07-29T15:37:53;34.80;40.40
41290;DHT22;36117;46.680;11.154;2022-07-29T15:40:19;35.00;40.50
41290;DHT22;36117;46.680;11.154;2022-07-29T15:42:45;35.10;40.30
41290;DHT22;36117;46.680;11.154;2022-07-29T15:45:11;35.00;40.00
41290;DHT22;36117;46.680;11.154;2022-07-29T15:47:37;35.00;39.60
41290;DHT22;36117;46.680;11.154;2022-07-29T15:50:03;34.90;39.80
41290;DHT22;36117;46.680;11.154;2022-07-29T15:52:29;34.90;39.60
41290;DHT22;36117;46.680;11.154;2022-07-29T15:54:55;34.90;39.90
41290;DHT22;36117;46.680;11.154;2022-07-29T15:57:22;35.10;39.10
41290;DHT22;36117;46.680;11.154;2022-07-29T15:59:49;35.00;38.60